createdAt,value
2019-05-15T00:01:08.516Z,62.10
2019-05-15T00:06:12.859Z,62.21
2019-05-15T00:11:19.188Z,62.88
2019-05-15T00:16:24.734Z,63.85
2019-05-15T00:21:30.094Z,64.71
2019-05-15T00:26:35.368Z,65.31
2019-05-15T00:31:40.564Z,65.87
2019-05-15T00:36:45.899Z,67.68
2019-05-15T00:41:54.599Z,69.20
2019-05-15T00:46:58.411Z,70.52
2019-05-15T00:52:03.904Z,71.90
2019-05-15T00:57:09.250Z,73.58
2019-05-15T01:02:14.702Z,74.44
2019-05-15T01:07:20.083Z,75.36
2019-05-15T01:12:25.491Z,76.02
2019-05-15T01:17:30.941Z,75.96
2019-05-15T01:22:36.219Z,76.33
2019-05-15T01:27:41.570Z,77.06
2019-05-15T01:32:48.573Z,77.30
2019-05-15T01:37:53.999Z,77.58
2019-05-15T01:42:59.390Z,77.66
2019-05-15T01:48:04.636Z,77.97
2019-05-15T01:53:09.869Z,76.86
2019-05-15T01:58:23.912Z,75.44
2019-05-15T02:03:33.372Z,74.69
2019-05-15T02:08:49.694Z,73.20
2019-05-15T02:13:56.054Z,72.23
2019-05-15T02:19:01.928Z,72.50
2019-05-15T02:24:12.426Z,72.91
2019-05-15T02:29:22.604Z,73.68
2019-05-15T02:34:30.164Z,74.25
2019-05-15T02:39:39.362Z,74.95
2019-05-15T02:44:58.679Z,75.70
2019-05-15T02:50:11.155Z,76.54
2019-05-15T02:55:23.618Z,77.58
2019-05-15T03:00:42.478Z,78.68
2019-05-15T03:05:41.131Z,79.61
2019-05-15T03:10:49.586Z,81.27
2019-05-15T03:15:59.958Z,82.29
2019-05-15T03:21:09.779Z,83.56
2019-05-15T03:26:23.167Z,84.98
2019-05-15T03:31:52.750Z,85.93
2019-05-15T03:36:47.601Z,87.31
2019-05-15T03:41:58.943Z,88.54
2019-05-15T03:47:09.022Z,89.81
2019-05-15T03:52:15.249Z,90.81
2019-05-15T03:57:30.555Z,92.24
2019-05-15T04:02:42.495Z,93.26
2019-05-15T04:07:52.828Z,93.63
2019-05-15T04:13:09.069Z,94.88
2019-05-15T04:18:21.939Z,95.55
2019-05-15T04:23:32.415Z,96.24
2019-05-15T04:28:41.611Z,97.47
2019-05-15T04:33:52.794Z,98.26
2019-05-15T04:39:04.164Z,98.84
2019-05-15T04:44:19.112Z,99.45
2019-05-15T04:49:28.798Z,99.93
2019-05-15T04:54:42.288Z,100.00
2019-05-15T04:59:58.708Z,100.00
2019-05-15T05:05:09.713Z,100.00
2019-05-15T05:10:21.961Z,100.00
2019-05-15T05:15:38.875Z,100.00
2019-05-15T05:20:45.151Z,100.00
2019-05-15T05:26:01.146Z,100.00
2019-05-15T05:31:19.388Z,100.00
2019-05-15T05:36:30.982Z,100.00
2019-05-15T05:41:48.955Z,100.00
2019-05-15T05:47:05.039Z,100.00
2019-05-15T05:52:18.563Z,100.00
2019-05-15T05:57:27.853Z,100.00
2019-05-15T06:02:48.013Z,100.00
2019-05-15T06:07:48.798Z,100.00
2019-05-15T06:13:08.691Z,100.00
2019-05-15T06:18:19.824Z,100.00
2019-05-15T06:23:44.026Z,100.00
2019-05-15T06:28:53.438Z,100.00
2019-05-15T06:34:03.512Z,98.95
2019-05-15T06:39:14.194Z,98.40
2019-05-15T06:44:20.102Z,97.29
2019-05-15T06:49:25.855Z,96.20
2019-05-15T06:54:37.879Z,94.77
2019-05-15T06:59:50.784Z,93.07
2019-05-15T07:05:02.083Z,89.69
2019-05-15T07:10:14.970Z,87.09
2019-05-15T07:15:27.849Z,85.42
2019-05-15T07:20:41.681Z,85.18
2019-05-15T07:25:53.691Z,83.60
2019-05-15T07:31:03.151Z,84.10
2019-05-15T07:36:14.337Z,82.98
2019-05-15T07:41:28.477Z,82.60
2019-05-15T07:46:38.635Z,81.86
2019-05-15T07:51:59.015Z,80.79
2019-05-15T07:57:09.967Z,80.66
2019-05-15T08:02:19.206Z,79.92
2019-05-15T08:07:32.319Z,80.04
2019-05-15T08:12:45.206Z,79.60
2019-05-15T08:18:03.352Z,78.88
2019-05-15T08:23:08.839Z,79.07
2019-05-15T08:28:18.980Z,78.94
2019-05-15T08:33:29.973Z,76.67
2019-05-15T08:38:38.396Z,76.15
2019-05-15T08:43:50.417Z,76.18
2019-05-15T08:48:59.201Z,77.05
2019-05-15T08:54:09.722Z,75.73
2019-05-15T08:59:19.484Z,74.93
2019-05-15T09:04:34.515Z,73.94
2019-05-15T09:09:38.226Z,73.31
2019-05-15T09:14:49.387Z,71.45
2019-05-15T09:20:01.786Z,70.17
2019-05-15T09:25:08.994Z,71.71
2019-05-15T09:30:18.292Z,72.57
2019-05-15T09:35:27.810Z,74.86
2019-05-15T09:40:45.648Z,72.99
2019-05-15T09:45:46.063Z,72.38
2019-05-15T09:50:59.807Z,70.04
2019-05-15T09:56:12.507Z,70.98
2019-05-15T10:01:24.532Z,71.41
2019-05-15T10:06:30.811Z,73.16
2019-05-15T10:11:41.245Z,71.48
2019-05-15T10:16:58.222Z,73.44
2019-05-15T10:22:04.240Z,74.64
2019-05-15T10:27:18.122Z,77.00
2019-05-15T10:32:29.151Z,76.41
2019-05-15T10:37:41.210Z,76.73
2019-05-15T10:42:51.244Z,72.31
2019-05-15T10:48:02.937Z,71.87
2019-05-15T10:53:11.594Z,69.42
2019-05-15T10:58:22.154Z,69.32
2019-05-15T11:03:34.849Z,69.00
2019-05-15T11:08:40.946Z,71.15
2019-05-15T11:13:48.356Z,71.15
2019-05-15T11:18:54.898Z,68.75
2019-05-15T11:24:02.247Z,69.57
2019-05-15T11:29:10.756Z,63.86
2019-05-15T11:34:18.637Z,65.31
2019-05-15T11:39:30.090Z,61.76
2019-05-15T11:44:38.950Z,62.62
2019-05-15T11:49:48.634Z,62.65
2019-05-15T11:55:01.891Z,63.73
2019-05-15T12:00:17.220Z,64.23
2019-05-15T12:05:18.265Z,63.46
2019-05-15T12:10:28.934Z,62.61
2019-05-15T12:15:34.735Z,63.08
2019-05-15T12:20:48.644Z,60.39
2019-05-15T12:25:59.751Z,60.47
2019-05-15T12:31:09.159Z,61.59
2019-05-15T12:36:45.356Z,62.45
2019-05-15T13:02:12.253Z,61.28
2019-05-15T13:07:19.966Z,60.97
2019-05-15T13:12:31.663Z,59.84
2019-05-15T13:17:43.917Z,60.18
2019-05-15T13:22:53.968Z,59.28
2019-05-15T13:28:02.590Z,58.02
2019-05-15T13:33:16.347Z,57.88
2019-05-15T13:38:25.946Z,59.51
2019-05-15T13:43:32.600Z,60.87
2019-05-15T13:48:38.708Z,57.62
2019-05-15T13:53:45.133Z,61.97
2019-05-15T13:59:01.803Z,60.33
2019-05-15T14:04:11.563Z,61.90
2019-05-15T14:09:25.309Z,62.65
2019-05-15T14:14:39.505Z,59.68
2019-05-15T14:19:50.603Z,56.86
2019-05-15T14:25:04.883Z,57.27
2019-05-15T14:30:15.050Z,58.58
2019-05-15T14:35:21.522Z,58.90
2019-05-15T14:40:36.198Z,59.59
2019-05-15T14:45:58.704Z,58.74
2019-05-15T14:51:14.364Z,59.51
2019-05-15T14:56:27.032Z,59.72
2019-05-15T15:01:40.621Z,57.91
2019-05-15T15:06:50.278Z,59.85
2019-05-15T15:12:02.883Z,60.93
2019-05-15T15:17:12.220Z,61.72
2019-05-15T15:22:24.272Z,61.46
2019-05-15T15:27:30.160Z,60.66
2019-05-15T15:32:49.069Z,63.22
2019-05-15T15:38:12.785Z,63.56
2019-05-15T15:43:22.762Z,60.63
2019-05-15T15:48:41.793Z,61.05
2019-05-15T15:53:59.580Z,60.89
2019-05-15T15:59:21.065Z,61.11
2019-05-15T16:04:39.201Z,61.51
2019-05-15T16:09:58.759Z,60.07
2019-05-15T16:15:18.075Z,56.43
2019-05-15T16:31:24.891Z,57.06
2019-05-15T16:36:32.547Z,57.79
2019-05-15T16:41:44.383Z,57.49
2019-05-15T16:47:02.714Z,58.14
2019-05-15T16:52:18.197Z,58.76
2019-05-15T16:57:34.343Z,57.66
2019-05-15T17:03:08.632Z,58.90
2019-05-15T17:08:11.445Z,59.28
2019-05-15T17:13:31.791Z,57.18
2019-05-15T17:19:09.295Z,58.56
2019-05-15T17:24:22.594Z,53.96
2019-05-15T17:29:48.978Z,55.10
2019-05-15T17:35:11.159Z,57.41
2019-05-15T17:40:28.460Z,60.00
2019-05-15T17:45:48.139Z,61.01
2019-05-15T17:51:05.051Z,60.86
2019-05-15T17:56:20.013Z,59.83
2019-05-15T18:01:32.455Z,58.66
2019-05-15T18:06:41.593Z,58.14
2019-05-15T18:11:54.345Z,58.02
2019-05-15T18:17:10.973Z,57.78
2019-05-15T18:22:18.081Z,58.37
2019-05-15T18:27:31.587Z,58.34
2019-05-15T18:32:39.117Z,58.77
2019-05-15T18:37:50.024Z,59.18
2019-05-15T18:43:00.062Z,60.41
2019-05-15T18:48:14.818Z,60.77
2019-05-15T18:53:24.530Z,62.18
2019-05-15T18:58:38.147Z,62.54
2019-05-15T19:03:48.524Z,63.46
2019-05-15T19:09:00.652Z,62.71
2019-05-15T19:14:15.933Z,63.09
2019-05-15T19:19:31.550Z,62.50
2019-05-15T19:24:42.034Z,61.87
2019-05-15T19:29:50.205Z,62.16
2019-05-15T19:35:01.407Z,63.45
2019-05-15T19:40:12.224Z,64.44
2019-05-15T19:45:20.505Z,65.19
2019-05-15T19:50:32.483Z,65.49
2019-05-15T19:55:44.145Z,65.99
2019-05-15T20:00:55.683Z,66.30
2019-05-15T20:06:08.676Z,66.74
2019-05-15T20:11:15.445Z,67.21
2019-05-15T20:16:22.505Z,67.44
2019-05-15T20:21:33.083Z,67.64
2019-05-15T20:26:41.373Z,68.13
2019-05-15T20:31:55.854Z,68.70
2019-05-15T20:37:02.971Z,69.03
2019-05-15T20:42:08.940Z,69.42
2019-05-15T20:47:14.782Z,69.70
2019-05-15T20:52:28.583Z,69.85
2019-05-15T20:57:34.282Z,70.14
2019-05-15T21:02:43.625Z,70.20
2019-05-15T21:07:55.562Z,70.19
2019-05-15T21:13:08.224Z,70.39
2019-05-15T21:18:20.353Z,70.89
2019-05-15T21:23:28.657Z,71.16
2019-05-15T21:28:35.383Z,71.83
2019-05-15T21:33:48.174Z,71.93
2019-05-15T21:38:58.591Z,72.17
2019-05-15T21:44:07.957Z,72.77
2019-05-15T21:49:19.201Z,72.77
2019-05-15T21:54:24.426Z,72.92
2019-05-15T21:59:30.253Z,73.11
2019-05-15T22:04:52.815Z,73.46
2019-05-15T22:09:51.642Z,74.43
2019-05-15T22:15:06.797Z,74.43
2019-05-15T22:20:18.071Z,74.99
2019-05-15T22:25:28.019Z,75.60
2019-05-15T22:30:39.730Z,76.30
2019-05-15T22:35:45.412Z,76.96
2019-05-15T22:40:56.043Z,77.52
2019-05-15T22:46:07.818Z,77.99
2019-05-15T22:51:20.025Z,78.27
2019-05-15T22:56:26.064Z,78.41
2019-05-15T23:01:33.403Z,78.65
2019-05-15T23:06:39.734Z,78.93
2019-05-15T23:11:54.603Z,79.00
2019-05-15T23:17:02.226Z,79.15
2019-05-15T23:22:14.113Z,79.79
2019-05-15T23:27:21.782Z,80.55
2019-05-15T23:32:32.985Z,81.35
2019-05-15T23:37:43.193Z,82.83
2019-05-15T23:42:52.914Z,82.83
2019-05-15T23:48:02.882Z,83.88
2019-05-15T23:53:19.008Z,84.48
2019-05-15T23:58:29.879Z,84.78
